sensor_id;sensor_type;location;lat;lon;timestamp;pressure;altitude;pressure_sealevel;temperature;humidity
75424;BME280;64005;55.160;36.002;2023-09-08T01:02:39;99645.38;;;9.22;59.63
75424;BME280;64005;55.160;36.002;2023-09-08T01:05:20;99641.47;;;9.23;59.44
75424;BME280;64005;55.160;36.002;2023-09-08T01:08:02;99637.56;;;9.24;59.81
75424;BME280;64005;55.160;36.002;2023-09-08T01:45:34;99579.63;;;9.31;60.62
75424;BME280;64005;55.160;36.002;2023-09-08T01:48:02;99604.97;;;9.51;60.51
75424;BME280;64005;55.160;36.002;2023-09-08T01:50:30;99602.41;;;9.55;60.62
75424;BME280;64005;55.160;36.002;2023-09-08T01:52:57;99599.47;;;9.60;60.79
75424;BME280;64005;55.160;36.002;2023-09-08T01:55:25;99593.63;;;9.62;60.72
75424;BME280;64005;55.160;36.002;2023-09-08T01:57:52;99584.16;;;9.63;60.85
75424;BME280;64005;55.160;36.002;2023-09-08T02:00:20;99580.72;;;9.66;60.70
75424;BME280;64005;55.160;36.002;2023-09-08T02:02:54;99581.25;;;9.68;60.94
75424;BME280;64005;55.160;36.002;2023-09-08T02:05:25;99580.13;;;9.69;60.62
75424;BME280;64005;55.160;36.002;2023-09-08T02:07:52;99575.03;;;9.71;60.85
75424;BME280;64005;55.160;36.002;2023-09-08T02:10:21;99571.13;;;9.72;61.00
75424;BME280;64005;55.160;36.002;2023-09-08T02:12:49;99578.03;;;9.74;60.74
75424;BME280;64005;55.160;36.002;2023-09-08T02:15:16;99574.28;;;9.79;60.77
75424;BME280;64005;55.160;36.002;2023-09-08T02:17:44;99572.84;;;9.81;60.77
75424;BME280;64005;55.160;36.002;2023-09-08T02:20:13;99572.53;;;9.83;61.00
75424;BME280;64005;55.160;36.002;2023-09-08T02:22:41;99567.78;;;9.83;61.05
75424;BME280;64005;55.160;36.002;2023-09-08T02:25:08;99573.34;;;9.83;61.27
75424;BME280;64005;55.160;36.002;2023-09-08T02:27:36;99572.53;;;9.83;61.30
75424;BME280;64005;55.160;36.002;2023-09-08T02:30:04;99568.09;;;9.82;61.51
75424;BME280;64005;55.160;36.002;2023-09-08T02:32:32;99573.00;;;9.85;61.21
75424;BME280;64005;55.160;36.002;2023-09-08T02:35:00;99572.38;;;9.88;61.48
75424;BME280;64005;55.160;36.002;2023-09-08T02:37:31;99569.31;;;9.89;61.42
75424;BME280;64005;55.160;36.002;2023-09-08T02:39:58;99564.56;;;9.90;61.09
75424;BME280;64005;55.160;36.002;2023-09-08T02:42:25;99572.91;;;9.90;61.16
75424;BME280;64005;55.160;36.002;2023-09-08T02:44:53;99559.31;;;9.88;61.44
75424;BME280;64005;55.160;36.002;2023-09-08T02:47:21;99572.91;;;9.90;61.45
75424;BME280;64005;55.160;36.002;2023-09-08T02:49:48;99575.16;;;9.88;61.18
75424;BME280;64005;55.160;36.002;2023-09-08T02:55:20;99558.28;;;9.84;61.58
75424;BME280;64005;55.160;36.002;2023-09-08T02:57:47;99561.59;;;9.86;61.67
75424;BME280;64005;55.160;36.002;2023-09-08T03:00:15;99554.38;;;9.85;61.55
75424;BME280;64005;55.160;36.002;2023-09-08T03:02:43;99557.97;;;9.86;61.59
75424;BME280;64005;55.160;36.002;2023-09-08T03:05:11;99557.66;;;9.87;61.64
75424;BME280;64005;55.160;36.002;2023-09-08T03:07:54;99564.56;;;9.90;61.46
75424;BME280;64005;55.160;36.002;2023-09-08T03:10:23;99570.44;;;9.88;61.62
75424;BME280;64005;55.160;36.002;2023-09-08T03:12:51;99563.84;;;9.84;61.74
75424;BME280;64005;55.160;36.002;2023-09-08T03:15:18;99565.94;;;9.79;61.67
75424;BME280;64005;55.160;36.002;2023-09-08T03:17:46;99571.03;;;9.77;61.89
75424;BME280;64005;55.160;36.002;2023-09-08T03:20:13;99560.53;;;9.74;62.00
75424;BME280;64005;55.160;36.002;2023-09-08T03:22:41;99565.78;;;9.75;61.75
75424;BME280;64005;55.160;36.002;2023-09-08T03:25:08;99567.41;;;9.76;61.94
75424;BME280;64005;55.160;36.002;2023-09-08T03:27:37;99557.13;;;9.77;62.00
75424;BME280;64005;55.160;36.002;2023-09-08T03:30:06;99556.31;;;9.76;61.98
75424;BME280;64005;55.160;36.002;2023-09-08T03:32:34;99556.78;;;9.78;62.22
75424;BME280;64005;55.160;36.002;2023-09-08T03:35:01;99558.56;;;9.74;62.22
75424;BME280;64005;55.160;36.002;2023-09-08T03:37:30;99560.00;;;9.72;62.44
75424;BME280;64005;55.160;36.002;2023-09-08T03:39:58;99560.84;;;9.72;62.48
75424;BME280;64005;55.160;36.002;2023-09-08T03:42:25;99555.59;;;9.71;62.36
75424;BME280;64005;55.160;36.002;2023-09-08T16:32:18;99233.03;;;12.55;65.14
75424;BME280;64005;55.160;36.002;2023-09-08T16:34:49;99228.94;;;12.53;65.39
75424;BME280;64005;55.160;36.002;2023-09-08T16:37:16;99240.44;;;12.51;64.90
75424;BME280;64005;55.160;36.002;2023-09-08T16:39:44;99242.28;;;12.47;65.45
75424;BME280;64005;55.160;36.002;2023-09-08T16:42:12;99240.16;;;12.44;65.15
75424;BME280;64005;55.160;36.002;2023-09-08T16:44:41;99243.66;;;12.41;65.16
75424;BME280;64005;55.160;36.002;2023-09-08T16:47:09;99241.53;;;12.38;65.10
75424;BME280;64005;55.160;36.002;2023-09-08T16:49:58;99250.25;;;12.37;64.92
75424;BME280;64005;55.160;36.002;2023-09-08T16:58:50;99262.03;;;12.21;65.28
75424;BME280;64005;55.160;36.002;2023-09-08T17:01:18;99274.56;;;12.15;65.78
75424;BME280;64005;55.160;36.002;2023-09-08T17:03:45;99274.28;;;12.08;65.77
75424;BME280;64005;55.160;36.002;2023-09-08T17:14:19;99281.31;;;11.85;66.48
75424;BME280;64005;55.160;36.002;2023-09-08T17:16:46;99279.22;;;11.82;67.05
75424;BME280;64005;55.160;36.002;2023-09-08T17:22:48;99294.31;;;11.72;66.83
75424;BME280;64005;55.160;36.002;2023-09-08T17:28:35;99301.13;;;11.63;67.07
75424;BME280;64005;55.160;36.002;2023-09-08T17:36:29;99310.16;;;11.51;67.31
75424;BME280;64005;55.160;36.002;2023-09-08T18:21:15;99332.13;;;10.97;67.30
75424;BME280;64005;55.160;36.002;2023-09-08T18:23:43;99329.53;;;10.92;67.48
75424;BME280;64005;55.160;36.002;2023-09-08T18:49:11;99347.75;;;10.47;66.96
75424;BME280;64005;55.160;36.002;2023-09-08T18:54:50;99351.00;;;10.40;66.42
75424;BME280;64005;55.160;36.002;2023-09-08T18:57:18;99354.78;;;10.35;66.82
75424;BME280;64005;55.160;36.002;2023-09-08T18:59:53;99356.09;;;10.29;67.00
75424;BME280;64005;55.160;36.002;2023-09-08T19:02:21;99360.19;;;10.23;66.69
75424;BME280;64005;55.160;36.002;2023-09-08T19:05:09;99363.44;;;10.17;66.93
75424;BME280;64005;55.160;36.002;2023-09-08T19:07:38;99362.06;;;10.14;66.71
75424;BME280;64005;55.160;36.002;2023-09-08T19:10:07;99359.47;;;10.09;67.16
75424;BME280;64005;55.160;36.002;2023-09-08T19:12:35;99362.38;;;10.04;66.76
75424;BME280;64005;55.160;36.002;2023-09-08T19:15:04;99358.63;;;10.00;66.89
75424;BME280;64005;55.160;36.002;2023-09-08T19:17:48;99359.91;;;9.94;67.02
75424;BME280;64005;55.160;36.002;2023-09-08T19:20:25;99351.22;;;9.87;66.89
75424;BME280;64005;55.160;36.002;2023-09-08T19:46:12;99378.53;;;9.45;66.18
75424;BME280;64005;55.160;36.002;2023-09-08T19:48:40;99374.44;;;9.43;65.84
75424;BME280;64005;55.160;36.002;2023-09-08T19:51:41;99375.88;;;9.40;65.91
75424;BME280;64005;55.160;36.002;2023-09-08T19:54:10;99387.97;;;9.36;65.65
75424;BME280;64005;55.160;36.002;2023-09-08T20:12:35;99395.53;;;8.91;65.60
75424;BME280;64005;55.160;36.002;2023-09-08T20:15:05;99385.88;;;8.88;65.39
75424;BME280;64005;55.160;36.002;2023-09-08T20:17:33;99393.97;;;8.85;65.19
75424;BME280;64005;55.160;36.002;2023-09-08T20:20:00;99388.06;;;8.77;65.42
75424;BME280;64005;55.160;36.002;2023-09-08T21:13:40;99416.91;;;7.77;65.29
75424;BME280;64005;55.160;36.002;2023-09-08T21:19:37;99420.78;;;7.76;65.22
75424;BME280;64005;55.160;36.002;2023-09-08T21:22:04;99420.28;;;7.74;65.12
75424;BME280;64005;55.160;36.002;2023-09-08T21:28:30;99412.91;;;7.70;65.07
75424;BME280;64005;55.160;36.002;2023-09-08T21:31:06;99421.28;;;7.65;65.35
75424;BME280;64005;55.160;36.002;2023-09-08T21:33:34;99417.31;;;7.57;65.45
75424;BME280;64005;55.160;36.002;2023-09-08T21:36:03;99422.91;;;7.52;65.56
75424;BME280;64005;55.160;36.002;2023-09-08T21:38:49;99425.38;;;7.53;65.38
75424;BME280;64005;55.160;36.002;2023-09-08T21:41:17;99425.19;;;7.50;65.30
75424;BME280;64005;55.160;36.002;2023-09-08T21:43:44;99436.66;;;7.43;65.49
75424;BME280;64005;55.160;36.002;2023-09-08T21:46:13;99435.59;;;7.39;65.63
75424;BME280;64005;55.160;36.002;2023-09-08T21:48:40;99435.41;;;7.36;65.15
75424;BME280;64005;55.160;36.002;2023-09-08T21:51:08;99441.16;;;7.39;65.29
75424;BME280;64005;55.160;36.002;2023-09-08T21:53:36;99443.63;;;7.41;65.05
75424;BME280;64005;55.160;36.002;2023-09-08T22:00:00;99454.16;;;7.39;65.23
75424;BME280;64005;55.160;36.002;2023-09-08T22:06:02;99444.63;;;7.31;64.92
75424;BME280;64005;55.160;36.002;2023-09-08T22:08:29;99440.81;;;7.27;64.97
75424;BME280;64005;55.160;36.002;2023-09-08T22:11:02;99455.03;;;7.21;65.06
75424;BME280;64005;55.160;36.002;2023-09-08T22:13:29;99454.91;;;7.12;65.71
75424;BME280;64005;55.160;36.002;2023-09-08T22:15:57;99458.81;;;7.11;65.46
75424;BME280;64005;55.160;36.002;2023-09-08T22:18:29;99452.97;;;7.12;65.72
75424;BME280;64005;55.160;36.002;2023-09-08T22:20:58;99462.91;;;7.13;65.04
75424;BME280;64005;55.160;36.002;2023-09-08T22:23:47;99468.44;;;7.13;65.49
75424;BME280;64005;55.160;36.002;2023-09-08T22:26:16;99465.69;;;7.13;65.57
75424;BME280;64005;55.160;36.002;2023-09-08T22:28:47;99457.75;;;7.07;65.22
75424;BME280;64005;55.160;36.002;2023-09-08T22:34:25;99472.22;;;7.04;66.05
75424;BME280;64005;55.160;36.002;2023-09-08T22:37:26;99462.56;;;7.01;65.96
75424;BME280;64005;55.160;36.002;2023-09-08T22:39:55;99468.69;;;6.98;66.13
75424;BME280;64005;55.160;36.002;2023-09-08T22:42:23;99473.91;;;7.00;66.20
75424;BME280;64005;55.160;36.002;2023-09-08T22:44:51;99471.69;;;7.02;66.31
75424;BME280;64005;55.160;36.002;2023-09-08T22:47:18;99473.84;;;7.05;66.23
75424;BME280;64005;55.160;36.002;2023-09-08T22:49:55;99475.72;;;7.09;66.19
75424;BME280;64005;55.160;36.002;2023-09-08T22:52:42;99488.44;;;7.10;65.79
75424;BME280;64005;55.160;36.002;2023-09-08T22:55:37;99493.44;;;7.08;66.08
75424;BME280;64005;55.160;36.002;2023-09-08T22:58:04;99486.88;;;7.04;65.72
75424;BME280;64005;55.160;36.002;2023-09-08T23:00:32;99490.75;;;7.03;65.72
75424;BME280;64005;55.160;36.002;2023-09-08T23:03:00;99483.28;;;7.04;65.46
75424;BME280;64005;55.160;36.002;2023-09-08T23:05:27;99481.63;;;7.03;65.71
75424;BME280;64005;55.160;36.002;2023-09-08T23:07:55;99489.09;;;7.02;66.07
75424;BME280;64005;55.160;36.002;2023-09-08T23:10:30;99492.41;;;7.04;66.09
75424;BME280;64005;55.160;36.002;2023-09-08T23:12:59;99488.50;;;7.05;66.29
75424;BME280;64005;55.160;36.002;2023-09-08T23:15:39;99491.56;;;7.04;65.87
75424;BME280;64005;55.160;36.002;2023-09-08T23:21:54;99501.19;;;7.06;65.60
75424;BME280;64005;55.160;36.002;2023-09-08T23:24:38;99500.38;;;7.06;65.72
75424;BME280;64005;55.160;36.002;2023-09-08T23:27:06;99496.78;;;7.05;65.79
75424;BME280;64005;55.160;36.002;2023-09-08T23:29:35;99500.16;;;7.02;66.04
75424;BME280;64005;55.160;36.002;2023-09-08T23:32:04;99460.13;;;6.81;65.84
75424;BME280;64005;55.160;36.002;2023-09-08T23:37:07;99480.00;;;6.83;65.88
75424;BME280;64005;55.160;36.002;2023-09-08T23:42:10;99501.13;;;6.93;66.14
75424;BME280;64005;55.160;36.002;2023-09-08T23:44:39;99475.97;;;6.75;65.88
75424;BME280;64005;55.160;36.002;2023-09-08T23:50:08;99495.78;;;6.83;65.92
75424;BME280;64005;55.160;36.002;2023-09-08T23:52:54;99494.72;;;6.78;65.62
75424;BME280;64005;55.160;36.002;2023-09-08T23:55:21;99484.03;;;6.72;66.16
